Time;durP1;ratioP1;P1;durP2;ratioP2;P2;SDS_P1;SDS_P2;PMS_P1;PMS_P2;Temp;Humidity;BMP_temperature;BMP_pressure;BME280_temperature;BME280_humidity;BME280_pressure;Samples;Min_cycle;Max_cycle;Signal;HPM_P1;HPM_P2
2023/05/03 00:01:10;;;;;;;17.63;6.28;;;2.10;99.90;;;;;;5101128;27;20071;-69
2023/05/03 00:03:36;;;;;;;15.02;5.72;;;2.10;99.90;;;;;;5102121;28;20047;-69
2023/05/03 00:06:12;;;;;;;11.25;4.93;;;2.10;99.90;;;;;;5099212;28;20507;-69
2023/05/03 00:08:38;;;;;;;13.48;6.25;;;2.00;99.90;;;;;;5099355;28;20725;-69
2023/05/03 00:11:04;;;;;;;11.45;6.68;;;2.00;99.90;;;;;;5097746;28;20051;-69
2023/05/03 00:13:29;;;;;;;11.70;5.68;;;2.00;99.90;;;;;;5093304;28;20031;-69
2023/05/03 00:15:55;;;;;;;10.95;5.90;;;2.00;99.90;;;;;;5097460;28;20032;-69
2023/05/03 00:18:21;;;;;;;15.30;5.85;;;2.00;99.90;;;;;;5087569;28;20048;-69
2023/05/03 00:20:47;;;;;;;11.32;6.05;;;2.00;99.90;;;;;;5081306;28;20054;-70
2023/05/03 00:23:12;;;;;;;16.65;6.70;;;2.00;99.90;;;;;;5085584;28;20443;-70
2023/05/03 00:25:38;;;;;;;11.30;5.07;;;2.00;99.90;;;;;;5093318;28;20043;-69
2023/05/03 00:28:04;;;;;;;11.73;6.05;;;2.00;99.90;;;;;;5082435;28;20465;-69
2023/05/03 00:30:30;;;;;;;9.55;5.80;;;2.00;99.90;;;;;;5077595;28;20044;-69
2023/05/03 00:32:56;;;;;;;10.65;5.28;;;2.00;99.90;;;;;;5092278;28;20036;-69
2023/05/03 00:35:22;;;;;;;9.50;5.25;;;2.00;99.90;;;;;;5085252;28;20470;-69
2023/05/03 00:37:48;;;;;;;16.02;6.05;;;1.90;99.90;;;;;;5079506;28;20048;-69
2023/05/03 00:40:17;;;;;;;10.45;5.22;;;1.90;99.90;;;;;;5086601;28;20527;-69
2023/05/03 00:42:43;;;;;;;11.95;5.72;;;1.80;99.90;;;;;;5083720;28;20675;-69
2023/05/03 00:45:10;;;;;;;10.18;5.40;;;1.80;99.90;;;;;;5086013;28;20036;-69
2023/05/03 00:47:36;;;;;;;14.07;6.05;;;1.80;99.90;;;;;;5080543;28;20040;-69
2023/05/03 00:50:01;;;;;;;12.68;5.85;;;1.70;99.90;;;;;;5079194;28;20051;-69
2023/05/03 00:52:28;;;;;;;12.45;5.88;;;1.80;99.90;;;;;;5078657;28;20036;-69
2023/05/03 00:54:56;;;;;;;17.73;5.70;;;1.70;99.90;;;;;;5081186;28;20555;-69
2023/05/03 00:57:23;;;;;;;9.55;5.78;;;1.80;99.90;;;;;;5081997;28;20047;-70
2023/05/03 00:59:51;;;;;;;9.35;5.22;;;1.70;99.90;;;;;;5082778;28;20270;-69
2023/05/03 01:02:17;;;;;;;16.73;5.90;;;1.70;99.90;;;;;;5084752;28;20040;-69
2023/05/03 01:04:42;;;;;;;21.58;6.35;;;1.60;99.90;;;;;;5080434;28;20046;-69
2023/05/03 01:07:42;;;;;;;10.45;4.97;;;1.60;99.90;;;;;;5084958;28;20058;-70
2023/05/03 01:10:30;;;;;;;10.70;4.85;;;1.60;99.90;;;;;;5084958;28;20036;-69
2023/05/03 01:13:16;;;;;;;12.15;5.43;;;1.60;99.90;;;;;;5081231;28;20083;-69
2023/05/03 01:16:19;;;;;;;9.73;4.95;;;1.50;99.90;;;;;;5084211;28;20054;-69
2023/05/03 01:18:48;;;;;;;11.85;5.45;;;1.50;99.90;;;;;;5064331;28;20044;-69
2023/05/03 01:21:17;;;;;;;10.65;5.10;;;1.50;99.90;;;;;;5078685;28;20064;-69
2023/05/03 01:24:05;;;;;;;11.73;5.40;;;1.50;99.90;;;;;;5085051;28;20040;-69
2023/05/03 01:26:32;;;;;;;10.50;5.60;;;1.50;99.90;;;;;;5093590;28;20050;-70
2023/05/03 01:28:59;;;;;;;12.55;5.50;;;1.50;99.90;;;;;;5080298;28;20123;-69
2023/05/03 01:31:30;;;;;;;20.20;7.28;;;1.50;99.90;;;;;;5073926;27;20063;-70
2023/05/03 01:34:07;;;;;;;11.52;5.72;;;1.40;99.90;;;;;;5064624;28;20123;-69
2023/05/03 01:36:35;;;;;;;17.98;6.38;;;1.40;99.90;;;;;;5063207;28;20127;-70
2023/05/03 01:39:15;;;;;;;12.82;5.40;;;1.40;99.90;;;;;;5065402;28;20044;-69
2023/05/03 01:41:42;;;;;;;14.00;5.93;;;1.30;99.90;;;;;;5062665;28;20041;-68
2023/05/03 01:44:09;;;;;;;11.75;5.30;;;1.40;99.90;;;;;;5062510;28;20048;-69
2023/05/03 01:46:44;;;;;;;11.75;5.78;;;1.30;99.90;;;;;;5064284;28;20075;-69
2023/05/03 01:49:11;;;;;;;13.48;5.60;;;1.30;99.90;;;;;;5065085;28;20029;-70
2023/05/03 01:51:37;;;;;;;10.75;5.38;;;1.30;99.90;;;;;;5064523;28;20044;-69
2023/05/03 01:54:03;;;;;;;14.30;6.22;;;1.30;99.90;;;;;;5065331;28;20042;-69
2023/05/03 01:56:30;;;;;;;22.02;5.63;;;1.20;99.90;;;;;;5064324;28;20044;-69
2023/05/03 01:58:55;;;;;;;16.73;5.97;;;1.20;99.90;;;;;;5064748;28;20068;-69
2023/05/03 02:01:21;;;;;;;13.32;6.20;;;1.20;99.90;;;;;;5063332;28;20539;-69
2023/05/03 02:03:47;;;;;;;12.73;6.15;;;1.20;99.90;;;;;;5065930;28;20602;-69
2023/05/03 02:06:12;;;;;;;11.90;6.05;;;1.20;99.90;;;;;;5065168;28;20124;-70
2023/05/03 02:08:38;;;;;;;11.68;6.10;;;1.20;99.90;;;;;;5066082;28;20047;-69
2023/05/03 02:11:05;;;;;;;15.60;6.15;;;1.20;99.90;;;;;;5062800;28;20033;-70
2023/05/03 02:13:31;;;;;;;11.98;5.93;;;1.20;99.90;;;;;;5059672;28;20097;-70
2023/05/03 02:15:56;;;;;;;10.50;6.30;;;1.20;99.90;;;;;;5063552;28;20044;-70
2023/05/03 02:18:22;;;;;;;13.65;5.90;;;1.20;99.90;;;;;;5065035;28;20385;-69
2023/05/03 02:20:48;;;;;;;10.63;5.80;;;1.20;99.90;;;;;;5063304;28;20539;-70
2023/05/03 02:23:13;;;;;;;14.88;6.60;;;1.20;99.90;;;;;;5063797;28;20117;-70
2023/05/03 02:25:40;;;;;;;13.52;6.10;;;1.10;99.90;;;;;;5061707;28;20099;-69
2023/05/03 02:28:05;;;;;;;11.80;5.65;;;1.20;99.90;;;;;;5060299;28;20043;-69
2023/05/03 02:30:32;;;;;;;15.73;6.22;;;1.10;99.90;;;;;;5051518;28;20036;-69
2023/05/03 02:32:58;;;;;;;15.05;6.30;;;1.10;99.90;;;;;;5047758;28;20060;-69
2023/05/03 02:35:24;;;;;;;12.80;5.32;;;1.10;99.90;;;;;;5056965;28;20041;-69
2023/05/03 02:37:50;;;;;;;10.27;5.78;;;1.10;99.90;;;;;;5063475;28;20778;-70
2023/05/03 02:40:16;;;;;;;12.25;6.40;;;1.00;99.90;;;;;;5062751;28;20044;-69
2023/05/03 02:42:41;;;;;;;11.93;5.80;;;1.00;99.90;;;;;;5060271;28;20032;-69
2023/05/03 02:45:07;;;;;;;11.35;6.05;;;1.10;99.90;;;;;;5063176;28;20128;-69
2023/05/03 02:47:33;;;;;;;10.80;5.60;;;1.00;99.90;;;;;;5064247;28;20046;-69
2023/05/03 02:49:58;;;;;;;16.30;6.28;;;1.10;99.90;;;;;;5064215;28;20032;-69
2023/05/03 02:52:24;;;;;;;13.73;6.25;;;1.00;99.90;;;;;;5061928;28;20076;-69
2023/05/03 02:54:50;;;;;;;11.07;5.32;;;1.10;99.90;;;;;;5061793;28;20358;-69
2023/05/03 02:57:15;;;;;;;10.75;5.85;;;1.00;99.90;;;;;;5063981;28;20730;-69
2023/05/03 02:59:41;;;;;;;16.73;7.60;;;1.00;99.90;;;;;;5062605;28;20132;-69
2023/05/03 03:02:06;;;;;;;13.55;6.25;;;1.00;99.90;;;;;;5062109;28;20097;-69
2023/05/03 03:04:32;;;;;;;13.43;5.43;;;0.90;99.90;;;;;;5063008;28;20052;-69
2023/05/03 03:06:57;;;;;;;9.80;5.85;;;0.90;99.90;;;;;;5062180;28;20160;-69
2023/05/03 03:09:23;;;;;;;12.45;5.70;;;0.90;99.90;;;;;;5062828;28;20082;-69
2023/05/03 03:11:51;;;;;;;15.38;6.38;;;0.90;99.90;;;;;;5061374;28;20041;-69
2023/05/03 03:14:17;;;;;;;16.08;6.05;;;0.90;99.90;;;;;;5058875;28;20110;-69
2023/05/03 03:16:44;;;;;;;9.60;5.22;;;0.80;99.90;;;;;;5058465;28;20045;-69
2023/05/03 03:19:10;;;;;;;12.85;5.75;;;0.80;99.90;;;;;;5059977;28;20045;-70
2023/05/03 03:21:36;;;;;;;15.75;5.57;;;0.80;99.90;;;;;;5052454;28;20045;-70
2023/05/03 03:24:02;;;;;;;18.02;5.97;;;0.80;99.90;;;;;;5059831;28;20464;-70
2023/05/03 03:26:28;;;;;;;20.27;6.18;;;0.80;99.90;;;;;;5058883;28;20123;-68
2023/05/03 03:28:54;;;;;;;11.15;5.55;;;0.80;99.90;;;;;;5057206;28;20561;-70
2023/05/03 03:31:21;;;;;;;11.75;5.32;;;0.70;99.90;;;;;;5073086;28;20036;-70
2023/05/03 03:33:48;;;;;;;17.38;5.90;;;0.70;99.90;;;;;;5081972;28;20077;-70
2023/05/03 03:36:13;;;;;;;11.75;5.85;;;0.80;99.90;;;;;;5076427;28;20048;-70
2023/05/03 03:38:40;;;;;;;11.90;6.57;;;0.80;99.90;;;;;;5074940;28;20040;-70
2023/05/03 03:41:06;;;;;;;13.30;5.53;;;0.80;99.90;;;;;;5076062;28;20032;-70
2023/05/03 03:43:31;;;;;;;16.67;5.60;;;0.80;99.90;;;;;;5071681;28;20119;-70
2023/05/03 03:45:57;;;;;;;12.45;5.00;;;0.70;99.90;;;;;;5085050;28;20052;-69
2023/05/03 03:48:23;;;;;;;11.10;4.85;;;0.70;99.90;;;;;;5083238;28;20071;-69
2023/05/03 03:50:49;;;;;;;11.77;6.55;;;0.70;99.90;;;;;;5082854;28;20043;-69
2023/05/03 03:53:15;;;;;;;14.95;5.57;;;0.70;99.90;;;;;;5083775;28;20035;-69
2023/05/03 03:55:40;;;;;;;16.00;5.40;;;0.70;99.90;;;;;;5087387;28;20539;-69
2023/05/03 03:58:06;;;;;;;9.63;5.15;;;0.80;99.90;;;;;;5085690;28;20043;-69
2023/05/03 04:00:34;;;;;;;11.60;5.20;;;0.80;99.90;;;;;;5080898;28;20044;-69
2023/05/03 04:02:59;;;;;;;8.75;5.35;;;0.80;99.90;;;;;;5099368;28;20040;-69
2023/05/03 04:05:25;;;;;;;9.30;4.88;;;0.70;99.90;;;;;;5084191;28;20364;-68
2023/05/03 04:07:51;;;;;;;11.68;5.70;;;0.80;99.90;;;;;;5087371;28;20500;-68
2023/05/03 04:10:16;;;;;;;10.38;5.72;;;0.80;99.90;;;;;;5086463;28;20048;-69
2023/05/03 04:12:42;;;;;;;14.25;5.32;;;0.80;99.90;;;;;;5086742;28;20511;-68
2023/05/03 04:15:09;;;;;;;9.98;5.07;;;0.90;99.90;;;;;;5087029;28;20065;-68
2023/05/03 04:17:35;;;;;;;12.02;4.82;;;0.90;99.90;;;;;;5083326;28;20526;-68
2023/05/03 04:20:09;;;;;;;11.35;4.85;;;1.00;99.90;;;;;;5081585;28;20492;-67
2023/05/03 04:22:37;;;;;;;11.05;5.68;;;1.00;99.90;;;;;;5082550;28;20036;-69
2023/05/03 04:25:04;;;;;;;13.90;5.55;;;1.20;99.90;;;;;;5088003;28;20411;-68
2023/05/03 04:27:29;;;;;;;10.45;4.80;;;1.60;99.90;;;;;;5087485;28;20048;-68
2023/05/03 04:29:58;;;;;;;14.60;5.57;;;1.70;99.90;;;;;;5088473;28;20617;-67
2023/05/03 04:32:24;;;;;;;15.05;5.50;;;1.70;99.90;;;;;;5097384;28;20135;-67
2023/05/03 04:34:51;;;;;;;14.68;5.10;;;1.70;99.90;;;;;;5090419;28;20047;-68
2023/05/03 04:37:18;;;;;;;10.55;4.88;;;1.70;99.90;;;;;;5106947;28;20051;-67
2023/05/03 04:39:45;;;;;;;10.02;5.05;;;1.70;99.90;;;;;;5091884;28;20496;-68
2023/05/03 04:42:14;;;;;;;9.10;4.85;;;1.90;99.90;;;;;;5086325;28;20114;-67
2023/05/03 04:44:41;;;;;;;12.20;4.65;;;2.00;99.90;;;;;;5086870;28;20065;-68
2023/05/03 04:47:07;;;;;;;7.97;4.47;;;2.10;99.90;;;;;;5086768;28;20538;-68
2023/05/03 04:49:33;;;;;;;12.43;4.43;;;2.50;99.90;;;;;;5087314;28;20040;-68
2023/05/03 04:51:59;;;;;;;11.35;4.50;;;3.00;99.90;;;;;;5083754;28;21261;-69
2023/05/03 04:54:25;;;;;;;7.60;3.85;;;3.60;99.90;;;;;;5088091;28;20411;-68
2023/05/03 04:56:53;;;;;;;6.95;3.55;;;4.90;99.90;;;;;;5088395;28;20420;-68
2023/05/03 04:59:18;;;;;;;11.07;3.33;;;6.10;99.90;;;;;;5086659;28;20484;-68
2023/05/03 05:01:44;;;;;;;10.00;4.05;;;7.10;99.90;;;;;;5073280;27;20083;-68
2023/05/03 05:04:10;;;;;;;6.63;3.53;;;7.60;99.90;;;;;;5066327;28;20036;-68
2023/05/03 05:06:35;;;;;;;;;;;7.80;99.90;;;;;;5062969;28;20047;-68
2023/05/03 05:09:01;;;;;;;6.32;3.40;;;8.40;99.90;;;;;;5057668;28;19956;-68
2023/05/03 05:11:27;;;;;;;;;;;9.00;99.90;;;;;;5060258;28;20735;-68
2023/05/03 05:13:52;;;;;;;4.97;3.33;;;9.70;99.50;;;;;;5063153;28;19927;-68
2023/05/03 05:16:18;;;;;;;;;;;9.50;98.40;;;;;;5066027;28;20575;-68
2023/05/03 05:18:44;;;;;;;10.23;3.67;;;9.50;98.90;;;;;;5064379;28;19947;-69
2023/05/03 05:21:10;;;;;;;;;;;9.30;98.20;;;;;;5057967;28;20479;-72
2023/05/03 05:23:36;;;;;;;10.40;3.35;;;9.50;98.70;;;;;;5063495;28;20204;-70
2023/05/03 05:26:01;;;;;;;;;;;9.60;98.90;;;;;;5064847;28;20051;-69
2023/05/03 05:28:27;;;;;;;7.90;3.30;;;9.30;97.80;;;;;;5058833;28;19921;-69
2023/05/03 05:30:53;;;;;;;;;;;9.20;99.50;;;;;;5060994;28;20049;-69
2023/05/03 05:33:19;;;;;;;10.38;3.45;;;9.00;98.70;;;;;;5063995;28;19926;-69
2023/05/03 05:35:46;;;;;;;;;;;9.70;98.50;;;;;;5062772;28;20044;-72
2023/05/03 05:38:11;;;;;;;6.88;3.30;;;10.70;97.60;;;;;;5065447;28;19916;-71
2023/05/03 05:40:37;;;;;;;;;;;11.20;95.30;;;;;;5062511;28;20127;-70
2023/05/03 05:43:04;;;;;;;6.90;2.92;;;11.90;95.50;;;;;;5066564;28;19916;-69
2023/05/03 05:45:30;;;;;;;9.05;2.70;;;12.40;93.90;;;;;;5063163;28;20040;-72
2023/05/03 05:47:55;;;;;;;;;;;13.20;92.70;;;;;;5062415;28;20032;-70
2023/05/03 05:50:21;;;;;;;7.88;2.92;;;13.70;92.10;;;;;;5063865;28;20128;-72
2023/05/03 05:52:49;;;;;;;6.82;3.38;;;13.40;91.30;;;;;;5059967;28;20041;-70
2023/05/03 05:55:15;;;;;;;8.50;3.10;;;13.30;92.00;;;;;;5060602;28;20040;-72
2023/05/03 05:57:41;;;;;;;5.70;2.53;;;13.70;93.10;;;;;;5053342;28;20042;-70
2023/05/03 06:00:13;;;;;;;;;;;13.40;91.10;;;;;;5056846;28;20033;-71
2023/05/03 06:02:42;;;;;;;7.05;2.92;;;13.30;91.60;;;;;;5062562;28;20295;-71
2023/05/03 06:05:08;;;;;;;5.57;2.47;;;13.20;91.60;;;;;;5064278;28;20447;-72
2023/05/03 06:07:33;;;;;;;5.68;2.58;;;13.30;92.30;;;;;;5064589;28;20056;-70
2023/05/03 06:09:59;;;;;;;;;;;12.40;92.80;;;;;;5065175;28;20404;-68
2023/05/03 06:12:26;;;;;;;4.88;2.60;;;12.10;93.30;;;;;;5063143;28;19947;-67
2023/05/03 06:14:52;;;;;;;6.20;2.53;;;13.00;93.20;;;;;;5061333;28;20052;-67
2023/05/03 06:17:17;;;;;;;;;;;14.60;89.30;;;;;;5065054;28;20044;-68
2023/05/03 06:19:43;;;;;;;4.38;2.30;;;15.20;87.20;;;;;;5064306;28;19977;-68
2023/05/03 06:22:08;;;;;;;6.03;1.95;;;15.20;84.70;;;;;;5062936;28;20033;-69
2023/05/03 06:24:34;;;;;;;;;;;15.10;87.00;;;;;;5063370;28;20044;-67
2023/05/03 06:27:00;;;;;;;6.20;2.55;;;14.10;89.30;;;;;;5063159;28;19973;-67
2023/05/03 06:29:25;;;;;;;11.50;3.53;;;13.10;91.60;;;;;;5063092;28;20524;-67
2023/05/03 06:31:51;;;;;;;5.20;2.17;;;12.80;92.80;;;;;;5058302;28;20044;-67
2023/05/03 06:34:20;;;;;;;;;;;12.50;91.80;;;;;;5060553;28;20036;-70
2023/05/03 06:36:46;;;;;;;7.70;2.40;;;12.30;91.90;;;;;;5064306;28;19931;-66
2023/05/03 06:39:11;;;;;;;;;;;12.60;91.50;;;;;;5062157;28;20041;-66
2023/05/03 06:41:37;;;;;;;5.75;2.17;;;13.20;88.40;;;;;;5060416;28;19920;-66
2023/05/03 06:44:03;;;;;;;7.18;2.13;;;14.00;88.20;;;;;;5060728;28;20072;-66
2023/05/03 06:46:29;;;;;;;7.63;2.20;;;14.80;85.30;;;;;;5062242;28;20044;-66
2023/05/03 06:48:56;;;;;;;7.50;2.45;;;14.90;84.90;;;;;;5065437;28;20170;-66
2023/05/03 06:51:29;;;;;;;6.70;1.80;;;15.10;81.70;;;;;;5060807;28;20047;-68
2023/05/03 06:53:56;;;;;;;5.53;2.17;;;15.70;85.00;;;;;;5065761;28;20471;-66
2023/05/03 06:56:22;;;;;;;4.95;2.30;;;16.00;81.00;;;;;;5064526;28;20051;-67
2023/05/03 06:58:48;;;;;;;4.05;1.60;;;15.20;81.90;;;;;;5063863;28;20040;-66
2023/05/03 07:01:17;;;;;;;5.68;2.00;;;15.10;83.10;;;;;;5058753;28;20036;-67
2023/05/03 07:03:43;;;;;;;3.58;1.90;;;15.60;80.40;;;;;;5042111;28;20075;-68
2023/05/03 07:06:09;;;;;;;6.85;1.70;;;15.40;83.40;;;;;;5056395;28;20072;-68
2023/05/03 07:08:35;;;;;;;5.65;2.10;;;15.80;81.00;;;;;;5063290;28;20048;-67
2023/05/03 07:11:00;;;;;;;4.53;2.05;;;16.90;77.90;;;;;;5062836;28;20115;-67
2023/05/03 07:13:26;;;;;;;5.85;1.85;;;16.40;77.70;;;;;;5062629;28;20094;-66
2023/05/03 07:15:52;;;;;;;5.53;1.92;;;16.00;77.40;;;;;;5065069;28;20047;-66
2023/05/03 07:18:17;;;;;;;6.70;1.90;;;16.00;78.70;;;;;;5061963;28;20037;-67
2023/05/03 07:20:43;;;;;;;3.63;1.45;;;15.70;79.70;;;;;;5056476;28;20068;-66
2023/05/03 07:23:08;;;;;;;5.82;2.20;;;15.50;77.90;;;;;;5057320;28;20025;-66
2023/05/03 07:25:34;;;;;;;5.30;1.90;;;15.10;79.60;;;;;;5064017;28;20097;-66
2023/05/03 07:28:00;;;;;;;10.20;1.73;;;14.90;80.30;;;;;;5063657;28;20044;-66
2023/05/03 07:30:26;;;;;;;9.85;2.22;;;15.00;84.70;;;;;;5060481;28;20044;-66
2023/05/03 07:32:51;;;;;;;;;;;14.70;82.10;;;;;;5067022;28;20457;-66
2023/05/03 07:35:18;;;;;;;5.82;2.33;;;13.70;83.60;;;;;;5067786;28;19920;-66
2023/05/03 07:37:43;;;;;;;7.65;2.40;;;13.20;86.80;;;;;;5066325;28;20121;-66
2023/05/03 07:40:10;;;;;;;;;;;13.10;89.80;;;;;;5082869;28;20552;-66
2023/05/03 07:42:36;;;;;;;8.02;2.38;;;12.80;91.10;;;;;;5065160;28;19920;-66
2023/05/03 07:45:02;;;;;;;;;;;12.80;91.40;;;;;;5053192;28;20094;-66
2023/05/03 07:47:27;;;;;;;7.10;2.40;;;13.00;89.30;;;;;;5048067;28;20332;-68
2023/05/03 07:49:53;;;;;;;;;;;12.40;90.50;;;;;;5056742;28;20469;-66
2023/05/03 07:52:19;;;;;;;9.43;2.58;;;12.10;92.60;;;;;;5063011;28;20360;-66
2023/05/03 07:54:45;;;;;;;;;;;12.20;91.20;;;;;;5065210;28;20464;-67
2023/05/03 07:57:15;;;;;;;5.43;2.08;;;12.70;90.80;;;;;;5066476;28;19973;-66
2023/05/03 07:59:42;;;;;;;4.40;2.08;;;13.10;90.30;;;;;;5060126;28;20083;-66
2023/05/03 08:02:08;;;;;;;6.97;2.35;;;14.30;90.30;;;;;;5063669;28;20029;-67
2023/05/03 08:04:34;;;;;;;4.70;2.20;;;15.20;80.70;;;;;;5066846;28;20040;-66
2023/05/03 08:07:03;;;;;;;7.05;2.45;;;14.90;83.90;;;;;;5063720;28;20048;-66
2023/05/03 08:09:29;;;;;;;7.47;1.80;;;16.00;82.10;;;;;;5064317;28;20339;-67
2023/05/03 08:11:55;;;;;;;3.83;2.10;;;17.00;77.50;;;;;;5064891;28;20127;-66
2023/05/03 08:14:22;;;;;;;5.95;2.20;;;18.30;73.20;;;;;;5066388;28;20126;-66
2023/05/03 08:16:48;;;;;;;3.67;1.58;;;18.70;73.20;;;;;;5066566;28;20049;-66
2023/05/03 08:19:14;;;;;;;4.05;1.67;;;18.80;66.20;;;;;;5065148;28;20932;-66
2023/05/03 08:21:40;;;;;;;6.85;2.22;;;19.00;68.70;;;;;;5065542;28;20101;-66
2023/05/03 08:24:07;;;;;;;5.25;1.88;;;18.30;67.90;;;;;;5063199;28;20802;-66
2023/05/03 08:26:33;;;;;;;4.18;1.73;;;18.90;70.40;;;;;;5080036;28;20044;-67
2023/05/03 08:29:02;;;;;;;2.95;1.40;;;19.30;65.90;;;;;;5065638;28;20501;-67
2023/05/03 08:31:28;;;;;;;4.65;1.90;;;19.90;67.30;;;;;;5062122;28;20090;-67
2023/05/03 08:33:53;;;;;;;5.53;2.33;;;20.20;60.40;;;;;;5062881;28;20048;-68
2023/05/03 08:36:19;;;;;;;3.88;2.10;;;20.60;59.10;;;;;;5062584;28;20033;-67
2023/05/03 08:38:44;;;;;;;6.20;1.77;;;20.40;59.90;;;;;;5061458;28;20399;-66
2023/05/03 08:41:26;;;;;;;4.53;2.08;;;20.40;60.00;;;;;;5064904;28;20047;-66
2023/05/03 08:43:53;;;;;;;4.00;1.90;;;20.20;60.60;;;;;;5066060;28;20087;-66
2023/05/03 08:46:19;;;;;;;5.55;1.90;;;19.40;61.00;;;;;;5064460;28;20903;-66
2023/05/03 08:48:49;;;;;;;7.25;1.90;;;17.90;65.70;;;;;;5064771;28;20473;-67
2023/05/03 08:51:16;;;;;;;4.95;2.20;;;16.10;72.40;;;;;;5063347;28;20044;-67
2023/05/03 08:53:42;;;;;;;6.85;2.63;;;14.70;75.70;;;;;;5065083;28;20032;-67
2023/05/03 08:56:08;;;;;;;;;;;13.50;81.10;;;;;;5073976;28;20766;-68
2023/05/03 08:58:35;;;;;;;5.25;2.38;;;12.80;85.50;;;;;;5064321;28;20876;-67
2023/05/03 09:01:05;;;;;;;5.43;2.30;;;12.20;88.60;;;;;;5062732;28;20119;-66
2023/05/03 09:03:32;;;;;;;6.95;2.70;;;12.30;89.10;;;;;;5064629;28;20041;-67
2023/05/03 09:06:00;;;;;;;11.15;3.10;;;12.00;89.90;;;;;;5065858;28;20044;-68
2023/05/03 09:08:27;;;;;;;4.72;2.50;;;11.90;90.50;;;;;;5064007;28;20045;-67
2023/05/03 09:10:53;;;;;;;6.72;2.25;;;11.50;91.00;;;;;;5061179;28;20047;-68
2023/05/03 09:13:19;;;;;;;;;;;11.40;91.80;;;;;;5061165;28;20389;-68
2023/05/03 09:15:55;;;;;;;7.82;2.70;;;11.30;90.80;;;;;;5063931;28;19927;-68
2023/05/03 09:18:22;;;;;;;;;;;11.10;91.10;;;;;;5051769;28;20037;-69
2023/05/03 09:20:51;;;;;;;;;;;11.10;93.40;;;;;;5063906;28;19916;-71
2023/05/03 09:23:38;;;;;;;7.40;3.03;;;11.00;93.70;;;;;;5064140;28;19912;-68
2023/05/03 09:26:05;;;;;;;9.15;2.70;;;10.80;93.80;;;;;;5072412;28;20054;-68
2023/05/03 09:28:41;;;;;;;10.13;3.60;;;11.10;93.10;;;;;;5061041;28;20803;-67
2023/05/03 09:31:07;;;;;;;5.40;2.67;;;11.10;92.80;;;;;;5060409;28;20150;-70
2023/05/03 09:33:32;;;;;;;;;;;10.80;95.60;;;;;;5059199;28;20036;-66
2023/05/03 09:36:03;;;;;;;5.00;2.70;;;10.90;92.90;;;;;;5062406;28;19920;-67
2023/05/03 09:38:35;;;;;;;7.88;3.20;;;10.80;94.20;;;;;;5062707;28;20599;-66
2023/05/03 09:41:01;;;;;;;6.47;3.10;;;11.00;93.20;;;;;;5061828;28;20042;-67
2023/05/03 09:43:28;;;;;;;6.55;2.70;;;10.90;93.10;;;;;;5059913;28;20045;-71
2023/05/03 09:46:12;;;;;;;5.47;2.50;;;10.70;93.30;;;;;;5058393;28;20049;-67
2023/05/03 09:48:39;;;;;;;7.00;2.97;;;10.80;94.40;;;;;;5062146;28;20064;-67
2023/05/03 09:51:05;;;;;;;5.38;2.70;;;11.00;95.00;;;;;;5061962;28;20127;-67
2023/05/03 09:53:32;;;;;;;5.05;2.67;;;11.00;94.80;;;;;;5060447;28;20501;-67
2023/05/03 09:56:01;;;;;;;7.47;2.28;;;11.20;93.70;;;;;;5073477;28;20052;-66
2023/05/03 09:58:29;;;;;;;5.53;2.70;;;10.80;93.20;;;;;;5062533;28;20484;-67
2023/05/03 10:00:56;;;;;;;5.53;2.53;;;11.00;94.50;;;;;;5061662;28;20044;-69
2023/05/03 10:03:43;;;;;;;7.35;2.92;;;11.20;94.40;;;;;;5062608;28;20072;-66
2023/05/03 10:06:27;;;;;;;9.65;2.80;;;11.40;93.20;;;;;;5054507;28;20053;-67
2023/05/03 10:09:00;;;;;;;11.20;3.67;;;11.50;93.70;;;;;;5059474;28;20032;-70
2023/05/03 10:11:27;;;;;;;12.32;3.13;;;11.40;93.90;;;;;;5060787;28;20036;-69
2023/05/03 10:13:54;;;;;;;4.97;2.60;;;11.20;93.80;;;;;;5063881;28;20123;-70
2023/05/03 10:16:24;;;;;;;8.27;2.85;;;11.60;94.20;;;;;;5064555;28;20472;-70
2023/05/03 10:18:58;;;;;;;6.80;2.85;;;11.70;94.10;;;;;;5063720;28;20684;-70
2023/05/03 10:21:34;;;;;;;8.52;2.85;;;11.70;94.40;;;;;;5061357;28;20044;-68
2023/05/03 10:24:13;;;;;;;7.43;2.75;;;11.40;93.20;;;;;;5061646;28;20036;-67
2023/05/03 10:26:49;;;;;;;4.88;2.53;;;11.50;94.60;;;;;;5072276;28;20040;-67
2023/05/03 10:29:33;;;;;;;5.78;2.40;;;11.60;92.10;;;;;;5067828;28;20041;-70
2023/05/03 10:32:01;;;;;;;5.63;2.75;;;11.80;92.60;;;;;;5069866;28;20086;-67
2023/05/03 10:34:31;;;;;;;8.98;2.88;;;12.10;92.60;;;;;;5069629;28;20032;-67
2023/05/03 10:37:08;;;;;;;4.18;2.78;;;12.10;93.00;;;;;;5063636;28;20127;-66
2023/05/03 10:39:34;;;;;;;5.47;2.10;;;11.60;92.80;;;;;;5072217;28;20036;-66
2023/05/03 10:42:03;;;;;;;;;;;11.70;91.70;;;;;;5068763;28;20048;-67
2023/05/03 10:45:00;;;;;;;6.38;2.97;;;11.80;93.00;;;;;;5052595;28;20024;-66
2023/05/03 10:47:25;;;;;;;6.53;2.92;;;11.60;93.10;;;;;;5046536;28;20060;-67
2023/05/03 10:50:10;;;;;;;;;;;11.60;93.50;;;;;;5054515;28;20089;-67
2023/05/03 10:52:42;;;;;;;11.00;3.08;;;11.70;94.60;;;;;;5050234;28;19979;-67
2023/05/03 10:55:09;;;;;;;6.10;2.75;;;11.70;92.40;;;;;;5058941;28;20028;-67
2023/05/03 10:57:41;;;;;;;7.95;3.10;;;11.50;92.40;;;;;;5073168;28;20039;-66
2023/05/03 11:00:13;;;;;;;5.25;2.78;;;11.70;93.10;;;;;;5060546;28;20068;-66
2023/05/03 11:03:15;;;;;;;4.07;2.58;;;11.80;95.50;;;;;;5073646;28;20111;-67
2023/05/03 11:05:41;;;;;;;8.57;3.10;;;12.10;92.30;;;;;;5070260;28;20036;-67
2023/05/03 11:08:13;;;;;;;;;;;12.10;93.80;;;;;;5075878;28;20086;-66
2023/05/03 11:10:39;;;;;;;10.98;3.28;;;12.10;93.90;;;;;;5065601;28;19920;-67
2023/05/03 11:13:06;;;;;;;8.95;2.70;;;11.80;97.10;;;;;;5070335;28;20036;-67
2023/05/03 11:15:32;;;;;;;8.02;2.88;;;12.00;94.00;;;;;;5064694;28;20099;-66
2023/05/03 11:17:58;;;;;;;8.85;3.45;;;11.90;94.40;;;;;;5062341;28;20056;-66
2023/05/03 11:20:24;;;;;;;;;;;11.90;93.90;;;;;;5064645;28;20033;-69
2023/05/03 11:22:51;;;;;;;7.75;3.10;;;12.00;94.50;;;;;;5059379;28;20275;-67
2023/05/03 11:25:17;;;;;;;7.03;3.28;;;11.90;95.90;;;;;;5066049;28;20036;-66
2023/05/03 11:27:43;;;;;;;8.55;3.08;;;12.00;93.40;;;;;;5068942;28;20056;-66
2023/05/03 11:30:09;;;;;;;;;;;12.10;92.60;;;;;;5063535;28;20119;-66
2023/05/03 11:32:37;;;;;;;11.18;3.65;;;12.00;94.60;;;;;;5057900;28;19943;-67
2023/05/03 11:35:04;;;;;;;9.38;3.38;;;11.90;92.90;;;;;;5063415;28;20048;-66
2023/05/03 11:37:31;;;;;;;6.20;3.28;;;12.20;96.10;;;;;;5065275;28;20050;-66
2023/05/03 11:39:57;;;;;;;7.95;3.30;;;12.50;93.80;;;;;;5065261;28;20048;-66
2023/05/03 11:42:27;;;;;;;6.78;3.78;;;12.30;93.70;;;;;;5041642;28;20041;-66
2023/05/03 11:44:53;;;;;;;10.68;3.30;;;12.30;95.40;;;;;;5042398;28;20073;-69
2023/05/03 11:47:20;;;;;;;8.18;3.10;;;12.20;93.50;;;;;;5063661;28;20110;-66
2023/05/03 11:49:56;;;;;;;7.45;3.80;;;12.30;93.10;;;;;;5068729;28;20100;-66
2023/05/03 11:52:23;;;;;;;6.22;3.15;;;12.30;92.90;;;;;;5065076;28;20059;-67
2023/05/03 11:54:53;;;;;;;5.55;3.03;;;12.40;93.00;;;;;;5064343;28;20062;-67
2023/05/03 11:57:19;;;;;;;6.55;3.45;;;12.50;93.40;;;;;;5062156;28;20041;-67
2023/05/03 11:59:45;;;;;;;8.10;3.33;;;12.50;93.40;;;;;;5058213;28;20148;-67
2023/05/03 12:02:11;;;;;;;;;;;12.40;93.60;;;;;;5062336;28;20115;-67
2023/05/03 12:04:39;;;;;;;7.22;3.22;;;12.60;93.90;;;;;;5062618;28;19959;-67
2023/05/03 12:07:06;;;;;;;7.47;3.83;;;12.50;93.10;;;;;;5069853;28;20048;-66
2023/05/03 12:09:32;;;;;;;7.90;3.50;;;12.40;93.50;;;;;;5061759;28;20052;-65
2023/05/03 12:11:59;;;;;;;5.78;3.22;;;12.50;93.40;;;;;;5060394;28;20068;-65
2023/05/03 12:14:25;;;;;;;6.38;3.65;;;12.50;93.60;;;;;;5062106;28;20040;-67
2023/05/03 12:16:51;;;;;;;;;;;12.40;93.30;;;;;;5065766;28;20063;-67
2023/05/03 12:19:28;;;;;;;6.25;3.38;;;12.20;92.70;;;;;;5065645;28;20614;-67
2023/05/03 12:21:53;;;;;;;;;;;12.20;93.40;;;;;;5064691;28;20045;-66
2023/05/03 12:24:21;;;;;;;8.43;3.55;;;12.30;93.50;;;;;;5066893;28;19923;-67
2023/05/03 12:26:48;;;;;;;6.00;3.33;;;12.30;92.70;;;;;;5065563;28;20457;-67
2023/05/03 12:29:18;;;;;;;7.57;3.63;;;12.60;93.80;;;;;;5057325;28;20062;-66
2023/05/03 12:31:44;;;;;;;4.97;3.58;;;12.60;93.70;;;;;;5065213;28;20041;-66
2023/05/03 12:34:10;;;;;;;;;;;12.60;92.40;;;;;;5066169;28;20055;-66
2023/05/03 12:36:36;;;;;;;8.13;4.55;;;12.60;93.00;;;;;;5059069;28;19921;-66
2023/05/03 12:39:02;;;;;;;7.43;3.33;;;12.60;92.30;;;;;;5066687;28;20411;-66
2023/05/03 12:41:30;;;;;;;;;;;12.70;94.20;;;;;;5063113;28;20050;-66
2023/05/03 12:43:59;;;;;;;7.18;3.63;;;12.60;91.70;;;;;;5066839;28;19924;-66
2023/05/03 12:46:25;;;;;;;6.85;3.45;;;12.70;91.60;;;;;;5067808;28;20116;-66
2023/05/03 12:48:51;;;;;;;;;;;12.50;91.60;;;;;;5067499;28;20631;-66
2023/05/03 12:51:17;;;;;;;6.18;3.13;;;12.50;91.30;;;;;;5063892;28;19927;-66
2023/05/03 12:53:43;;;;;;;6.53;3.58;;;12.70;92.70;;;;;;5066155;28;20072;-66
2023/05/03 12:56:09;;;;;;;;;;;12.70;91.70;;;;;;5065937;28;20074;-66
2023/05/03 12:58:35;;;;;;;7.57;3.05;;;12.80;92.80;;;;;;5066131;28;19963;-66
2023/05/03 13:01:02;;;;;;;9.50;3.15;;;13.00;92.00;;;;;;5057988;28;20033;-67